createdAt,value
2018-07-15T04:17:24.419Z,10.60
2018-07-15T04:19:53.445Z,10.70
2018-07-15T04:22:22.534Z,10.70
2018-07-15T04:24:51.548Z,10.80
2018-07-15T04:27:20.565Z,10.80
2018-07-15T04:29:49.612Z,11.00
2018-07-15T04:32:18.674Z,11.00
2018-07-15T04:34:47.717Z,11.10
2018-07-15T04:37:16.753Z,11.20
2018-07-15T04:39:45.819Z,11.20
2018-07-15T04:42:14.876Z,11.40
2018-07-15T04:44:43.904Z,11.40
2018-07-15T04:47:12.949Z,11.50
2018-07-15T04:49:41.971Z,11.60
2018-07-15T04:52:11.008Z,11.70
2018-07-15T04:54:40.045Z,11.80
2018-07-15T04:57:09.145Z,11.90
2018-07-15T04:59:38.220Z,12.10
2018-07-15T05:02:07.336Z,12.30
2018-07-15T05:04:36.311Z,12.50
2018-07-15T05:07:05.401Z,12.70
2018-07-15T05:09:34.461Z,12.90
2018-07-15T05:12:03.532Z,13.10
2018-07-15T05:14:32.549Z,13.30
2018-07-15T05:17:01.619Z,13.40
2018-07-15T05:19:30.761Z,13.60
2018-07-15T05:21:59.812Z,13.70
2018-07-15T05:24:28.884Z,13.80
2018-07-15T05:26:57.903Z,14.00
2018-07-15T05:29:26.958Z,14.10
2018-07-15T05:31:56.032Z,14.20
2018-07-15T05:34:25.061Z,14.30
2018-07-15T05:36:54.150Z,14.40
2018-07-15T05:39:23.180Z,14.60
2018-07-15T05:41:52.299Z,14.70
2018-07-15T05:44:21.345Z,14.80
2018-07-15T05:46:50.469Z,14.90
2018-07-15T05:49:19.535Z,15.00
2018-07-15T05:51:48.586Z,15.10
2018-07-15T05:54:17.642Z,15.20
2018-07-15T05:56:46.683Z,15.40
2018-07-15T05:59:15.739Z,15.60
2018-07-15T06:01:44.759Z,15.70
2018-07-15T06:04:13.800Z,15.80
2018-07-15T06:06:42.843Z,15.90
2018-07-15T06:09:11.901Z,16.00
2018-07-15T06:11:40.980Z,16.10
2018-07-15T06:14:10.028Z,16.20
2018-07-15T06:16:39.129Z,16.20
2018-07-15T06:19:08.192Z,16.30
2018-07-15T06:21:37.227Z,16.40
2018-07-15T06:24:06.426Z,16.50
2018-07-15T06:26:35.509Z,16.60
2018-07-15T06:29:04.582Z,16.70
2018-07-15T06:31:33.798Z,16.70
2018-07-15T06:34:02.893Z,16.70
2018-07-15T06:36:31.958Z,16.80
2018-07-15T06:39:01.024Z,16.90
2018-07-15T06:41:30.090Z,17.00
2018-07-15T06:43:59.239Z,17.10
2018-07-15T06:46:28.292Z,17.10
2018-07-15T06:48:57.425Z,17.10
2018-07-15T06:53:55.352Z,17.40
2018-07-15T06:56:24.432Z,17.60
2018-07-15T06:58:53.491Z,17.70
2018-07-15T07:01:24.161Z,17.80
2018-07-15T07:03:54.096Z,18.00
2018-07-15T07:06:23.135Z,18.20
2018-07-15T07:08:52.192Z,18.40
2018-07-15T07:11:21.268Z,18.50
2018-07-15T07:13:50.644Z,18.50
2018-07-15T07:16:19.689Z,18.50
2018-07-15T07:18:48.804Z,18.70
2018-07-15T07:21:17.836Z,18.80
2018-07-15T07:23:46.921Z,19.00
2018-07-15T07:26:16.057Z,19.10
2018-07-15T07:28:45.224Z,19.30
2018-07-15T07:31:15.220Z,19.40
2018-07-15T07:38:42.842Z,19.40
2018-07-15T07:41:12.054Z,19.40
2018-07-15T07:43:41.223Z,19.60
2018-07-15T07:46:10.306Z,19.60
2018-07-15T07:48:39.427Z,19.50
2018-07-15T07:51:08.688Z,19.50
2018-07-15T07:53:38.020Z,19.40
2018-07-15T07:56:08.316Z,19.60
2018-07-15T07:58:37.914Z,19.70
2018-07-15T08:01:08.766Z,19.90
2018-07-15T08:03:39.406Z,20.00
2018-07-15T08:06:10.024Z,19.90
2018-07-15T08:08:40.606Z,20.10
2018-07-15T08:11:13.307Z,20.10
2018-07-15T08:13:44.497Z,20.10
2018-07-15T08:16:14.743Z,20.20
2018-07-15T08:18:44.629Z,20.30
2018-07-15T08:21:13.872Z,20.30
2018-07-15T08:23:42.974Z,20.30
2018-07-15T08:26:12.299Z,20.40
2018-07-15T08:28:41.489Z,20.50
2018-07-15T08:31:14.400Z,20.70
2018-07-15T08:36:12.928Z,20.50
2018-07-15T08:38:42.523Z,20.60
2018-07-15T08:41:11.646Z,20.70
2018-07-15T08:43:40.989Z,20.80
2018-07-15T08:46:10.080Z,20.90
2018-07-15T08:48:39.161Z,21.10
2018-07-15T08:51:08.397Z,21.30
2018-07-15T08:53:37.630Z,21.50
2018-07-15T08:56:06.782Z,21.50
2018-07-15T08:58:35.944Z,21.30
2018-07-15T09:01:05.073Z,21.30
2018-07-15T09:03:34.103Z,21.30
2018-07-15T09:06:03.239Z,21.30
2018-07-15T09:08:32.318Z,21.40
2018-07-15T09:11:01.352Z,21.60
2018-07-15T09:13:30.420Z,21.70
2018-07-15T09:15:59.692Z,21.90
2018-07-15T09:18:28.765Z,21.80
2018-07-15T09:20:57.834Z,21.60
2018-07-15T09:23:27.038Z,21.30
2018-07-15T09:25:56.084Z,21.10
2018-07-15T09:28:25.180Z,21.10
2018-07-15T09:30:54.281Z,21.20
2018-07-15T09:33:23.543Z,21.40
2018-07-15T09:35:52.848Z,21.40
2018-07-15T09:40:50.815Z,21.50
2018-07-15T09:45:48.599Z,21.80
2018-07-15T09:48:17.670Z,21.90
2018-07-15T09:50:46.798Z,21.90
2018-07-15T09:53:15.884Z,21.80
2018-07-15T09:55:44.975Z,21.70
2018-07-15T09:58:14.031Z,21.70
2018-07-15T10:00:48.548Z,21.60
2018-07-15T10:03:17.571Z,21.60
2018-07-15T10:05:46.737Z,21.60
2018-07-15T10:08:15.842Z,21.80
2018-07-15T10:10:45.219Z,21.80
2018-07-15T10:13:14.380Z,21.90
2018-07-15T10:15:43.475Z,21.90
2018-07-15T10:18:12.663Z,21.90
2018-07-15T10:20:41.744Z,21.90
2018-07-15T10:23:10.911Z,21.90
2018-07-15T10:25:39.961Z,21.90
2018-07-15T10:28:09.149Z,22.00
2018-07-15T10:30:38.336Z,22.10
2018-07-15T10:33:07.564Z,22.10
2018-07-15T10:35:36.684Z,22.20
2018-07-15T10:38:06.116Z,22.30
2018-07-15T10:40:35.201Z,22.20
2018-07-15T10:43:10.971Z,22.20
2018-07-15T10:45:40.065Z,22.30
2018-07-15T10:48:09.157Z,22.40
2018-07-15T10:50:38.413Z,22.60
2018-07-15T10:53:07.483Z,22.70
2018-07-15T10:55:36.750Z,22.80
2018-07-15T10:58:06.069Z,22.70
2018-07-15T11:00:35.136Z,22.50
2018-07-15T11:03:04.220Z,22.30
2018-07-15T11:05:33.512Z,22.30
2018-07-15T11:08:02.565Z,22.40
2018-07-15T11:10:31.621Z,22.40
2018-07-15T11:13:00.874Z,22.40
2018-07-15T11:15:29.963Z,22.60
2018-07-15T11:17:59.067Z,22.70
2018-07-15T11:22:56.764Z,22.70
2018-07-15T11:25:25.818Z,22.60
2018-07-15T11:27:54.895Z,22.60
2018-07-15T11:30:24.043Z,22.70
2018-07-15T11:32:53.093Z,22.70
2018-07-15T11:35:22.190Z,22.70
2018-07-15T11:37:51.392Z,22.60
2018-07-15T11:40:20.868Z,22.50
2018-07-15T11:42:49.947Z,22.60
2018-07-15T11:45:19.044Z,22.60
2018-07-15T11:47:48.135Z,22.70
2018-07-15T11:50:17.647Z,22.80
2018-07-15T11:52:46.877Z,23.00
2018-07-15T11:55:16.153Z,23.10
2018-07-15T11:57:45.368Z,23.00
2018-07-15T12:00:14.672Z,23.10
2018-07-15T12:02:43.788Z,23.10
2018-07-15T12:05:13.027Z,23.00
2018-07-15T12:07:42.340Z,22.80
2018-07-15T12:10:11.423Z,22.80
2018-07-15T12:12:40.610Z,22.80
2018-07-15T12:15:09.867Z,23.00
2018-07-15T12:17:39.121Z,23.30
2018-07-15T12:20:08.501Z,23.20
2018-07-15T12:22:37.836Z,23.20
2018-07-15T12:25:07.100Z,23.20
2018-07-15T12:27:36.321Z,23.30
2018-07-15T12:30:05.738Z,23.10
2018-07-15T12:32:35.176Z,22.80
2018-07-15T12:35:04.323Z,22.80
2018-07-15T12:37:33.546Z,22.90
2018-07-15T12:40:02.901Z,23.10
2018-07-15T12:42:32.079Z,23.20
2018-07-15T12:45:01.253Z,23.30
2018-07-15T12:47:30.383Z,23.40
2018-07-15T12:49:59.493Z,23.20
2018-07-15T12:54:57.415Z,22.80
2018-07-15T12:57:26.576Z,22.60
2018-07-15T12:59:55.719Z,22.60
2018-07-15T13:02:25.016Z,22.60
2018-07-15T13:04:54.092Z,22.60
2018-07-15T13:07:23.304Z,22.50
2018-07-15T13:09:52.424Z,22.50
2018-07-15T13:12:21.717Z,22.60
2018-07-15T13:14:50.923Z,22.80
2018-07-15T13:17:20.249Z,23.00
2018-07-15T13:19:49.532Z,23.10
2018-07-15T13:22:18.742Z,23.30
2018-07-15T13:24:47.934Z,23.40
2018-07-15T13:27:17.126Z,23.40
2018-07-15T13:29:46.381Z,23.30
2018-07-15T13:32:15.317Z,23.20
2018-07-15T13:34:44.508Z,23.10
2018-07-15T13:37:13.770Z,23.10
2018-07-15T13:39:42.856Z,23.20
2018-07-15T13:42:11.948Z,23.30
2018-07-15T13:44:41.117Z,23.20
2018-07-15T13:47:10.208Z,23.10
2018-07-15T13:49:39.371Z,23.10
2018-07-15T13:52:08.464Z,23.20
2018-07-15T13:54:37.532Z,23.30
2018-07-15T13:57:06.669Z,23.50
2018-07-15T13:59:35.689Z,23.60
2018-07-15T14:02:04.798Z,23.70
2018-07-15T14:04:33.936Z,23.80
2018-07-15T14:07:02.991Z,23.70
2018-07-15T14:09:32.081Z,23.70
2018-07-15T14:12:01.201Z,23.40
2018-07-15T14:14:35.853Z,23.20
2018-07-15T14:17:05.206Z,23.00
2018-07-15T14:19:34.248Z,22.80
2018-07-15T14:22:03.296Z,22.70
2018-07-15T14:24:32.348Z,22.80
2018-07-15T14:27:01.383Z,22.90
2018-07-15T14:29:30.502Z,23.30
2018-07-15T14:31:59.609Z,23.40
2018-07-15T14:34:29.132Z,23.40
2018-07-15T14:36:58.310Z,23.30
2018-07-15T14:39:34.385Z,23.20
2018-07-15T14:42:03.816Z,23.10
2018-07-15T14:44:33.000Z,23.00
2018-07-15T14:47:02.261Z,22.90
2018-07-15T14:49:31.346Z,22.90
2018-07-15T14:52:00.601Z,23.00
2018-07-15T14:54:29.667Z,23.00
2018-07-15T14:56:58.775Z,22.90
2018-07-15T14:59:27.843Z,22.80
2018-07-15T15:01:56.953Z,22.70
2018-07-15T15:04:26.060Z,22.70
2018-07-15T15:06:55.079Z,22.60
2018-07-15T15:09:24.145Z,22.70
2018-07-15T15:11:53.315Z,22.80
2018-07-15T15:14:22.395Z,23.10
2018-07-15T15:16:51.419Z,23.40
2018-07-15T15:19:20.524Z,23.60
2018-07-15T15:21:49.589Z,23.90
2018-07-15T15:24:18.690Z,24.00
2018-07-15T15:26:47.717Z,24.10
2018-07-15T15:29:16.779Z,24.00
2018-07-15T15:31:46.069Z,23.70
2018-07-15T15:34:15.221Z,23.60
2018-07-15T15:36:44.390Z,23.40
2018-07-15T15:39:13.443Z,23.30
2018-07-15T15:41:42.743Z,23.20
2018-07-15T15:44:12.009Z,23.30
2018-07-15T15:46:41.343Z,23.30
2018-07-15T15:51:39.305Z,23.30
2018-07-15T15:54:08.736Z,23.20
2018-07-15T15:56:37.929Z,23.10
2018-07-15T15:59:06.976Z,22.90
2018-07-15T16:01:36.063Z,22.80
2018-07-15T16:04:05.185Z,22.70
2018-07-15T16:06:34.304Z,22.70
2018-07-15T16:09:03.516Z,22.70
2018-07-15T16:14:01.551Z,22.60
2018-07-15T16:16:30.747Z,22.50
2018-07-15T16:18:59.903Z,22.30
2018-07-15T16:21:29.023Z,22.20
2018-07-15T16:23:58.126Z,22.10
2018-07-15T16:26:27.286Z,22.10
2018-07-15T16:28:56.816Z,22.10
2018-07-15T16:31:25.928Z,22.10
2018-07-15T16:33:55.077Z,22.20
2018-07-15T16:36:24.180Z,22.30
2018-07-15T16:38:53.280Z,22.40
2018-07-15T16:41:22.412Z,22.40
2018-07-15T16:43:51.568Z,22.50
2018-07-15T16:46:20.796Z,22.60
2018-07-15T16:48:49.889Z,22.70
2018-07-15T16:51:19.302Z,22.70
2018-07-15T16:53:48.628Z,22.70
2018-07-15T16:56:18.001Z,22.60
2018-07-15T16:58:47.092Z,22.60
2018-07-15T17:01:16.164Z,22.50
2018-07-15T17:03:45.537Z,22.40
2018-07-15T17:06:14.842Z,22.40
2018-07-15T17:08:43.901Z,22.50
2018-07-15T17:11:13.075Z,22.50
2018-07-15T17:13:42.116Z,22.60
2018-07-15T17:16:11.197Z,22.50
2018-07-15T17:18:40.270Z,22.40
2018-07-15T17:21:09.524Z,22.30
2018-07-15T17:23:38.825Z,22.30
2018-07-15T17:26:07.976Z,22.20
2018-07-15T17:28:37.194Z,22.00
2018-07-15T17:31:06.485Z,21.90
2018-07-15T17:33:35.640Z,21.80
2018-07-15T17:36:04.902Z,21.70
2018-07-15T17:38:33.953Z,21.60
2018-07-15T17:41:03.069Z,21.50
2018-07-15T17:43:32.154Z,21.40
2018-07-15T17:46:01.420Z,21.40
2018-07-15T17:48:30.505Z,21.30
2018-07-15T17:50:59.571Z,21.30
2018-07-15T17:53:28.633Z,21.20
2018-07-15T17:55:57.693Z,21.20
2018-07-15T17:58:27.944Z,21.10
2018-07-15T18:00:57.108Z,21.10
2018-07-15T18:03:26.145Z,21.10
2018-07-15T18:05:55.224Z,21.10
2018-07-15T18:08:24.297Z,21.10
2018-07-15T18:10:53.416Z,21.10
2018-07-15T18:13:22.440Z,21.10
2018-07-15T18:15:51.490Z,21.10
2018-07-15T18:18:20.510Z,21.00
2018-07-15T18:20:49.593Z,21.00
2018-07-15T18:23:18.644Z,21.00
2018-07-15T18:25:47.800Z,20.90
2018-07-15T18:28:16.840Z,20.90
2018-07-15T18:30:45.917Z,20.80
2018-07-15T18:33:15.100Z,20.80
2018-07-15T18:35:44.286Z,20.70
2018-07-15T18:38:13.470Z,20.70
2018-07-15T18:40:42.634Z,20.60
2018-07-15T18:43:11.802Z,20.50
2018-07-15T18:45:40.965Z,20.50
2018-07-15T18:48:09.992Z,20.40
2018-07-15T18:50:39.046Z,20.30
2018-07-15T18:53:08.122Z,20.20
2018-07-15T18:55:37.211Z,20.10
2018-07-15T18:58:06.529Z,20.00
2018-07-15T19:00:35.869Z,20.00
2018-07-15T19:03:04.908Z,19.90
2018-07-15T19:05:34.099Z,19.80
2018-07-15T19:08:03.156Z,19.70
2018-07-15T19:10:32.240Z,19.60
2018-07-15T19:13:01.521Z,19.50
2018-07-15T19:15:30.653Z,19.40
2018-07-15T19:18:00.094Z,19.30
2018-07-15T19:20:29.167Z,19.20
2018-07-15T19:22:58.441Z,19.10
2018-07-15T19:25:27.572Z,19.00
2018-07-15T19:27:56.612Z,18.90
2018-07-15T19:30:25.876Z,18.80
2018-07-15T19:32:54.948Z,18.70
2018-07-15T19:35:24.081Z,18.60
2018-07-15T19:37:53.195Z,18.40
2018-07-15T19:40:22.309Z,18.30
2018-07-15T19:42:51.353Z,18.20
2018-07-15T19:45:20.460Z,18.10
2018-07-15T19:47:49.532Z,18.00
2018-07-15T19:50:18.596Z,17.90
2018-07-15T19:52:47.648Z,17.90
2018-07-15T19:55:16.759Z,17.80
2018-07-15T19:57:46.197Z,17.70
2018-07-15T20:00:15.296Z,17.60
2018-07-15T20:02:44.579Z,17.50
2018-07-15T20:05:13.820Z,17.40
2018-07-15T20:07:43.101Z,17.30
2018-07-15T20:10:12.449Z,17.20
2018-07-15T20:15:10.345Z,17.10
2018-07-15T20:17:39.452Z,17.00
2018-07-15T20:20:10.341Z,17.00
2018-07-15T20:22:39.467Z,16.90
2018-07-15T20:25:08.993Z,16.80
2018-07-15T20:27:38.131Z,16.80
2018-07-15T20:30:07.245Z,16.70
2018-07-15T20:32:36.307Z,16.60
2018-07-15T20:35:05.418Z,16.60
2018-07-15T20:37:34.642Z,16.50
2018-07-15T20:40:03.842Z,16.40
2018-07-15T20:42:33.142Z,16.40
2018-07-15T20:45:02.565Z,16.30
2018-07-15T20:47:31.662Z,16.20
2018-07-15T20:50:00.776Z,16.10
2018-07-15T20:52:29.882Z,16.10
2018-07-15T20:54:58.996Z,16.00
2018-07-15T20:57:28.018Z,15.90
2018-07-15T20:59:57.076Z,15.80
2018-07-15T21:02:26.211Z,15.80
2018-07-15T21:04:55.293Z,15.70
2018-07-15T21:07:24.429Z,15.60
2018-07-15T21:09:53.452Z,15.60
2018-07-15T21:12:22.611Z,15.60
2018-07-15T21:14:51.745Z,15.60
2018-07-15T21:17:20.787Z,15.50
2018-07-15T21:19:49.843Z,15.50
2018-07-15T21:22:18.856Z,15.40
2018-07-15T21:24:47.936Z,15.40
2018-07-15T21:27:17.057Z,15.30
2018-07-15T21:29:46.166Z,15.20
2018-07-15T21:32:15.396Z,15.20
2018-07-15T21:34:44.570Z,15.20
2018-07-15T21:37:13.628Z,15.20
2018-07-15T21:39:42.691Z,15.10
2018-07-15T21:42:12.679Z,15.10
2018-07-15T21:44:41.700Z,15.00
2018-07-15T21:47:10.756Z,15.00
2018-07-15T21:49:39.785Z,14.90
2018-07-15T21:52:09.032Z,14.80
2018-07-15T21:54:38.067Z,14.80
2018-07-15T21:57:07.226Z,14.80
2018-07-15T21:59:36.241Z,14.80
2018-07-15T22:02:05.449Z,14.80
2018-07-15T22:04:34.497Z,14.70
2018-07-15T22:07:14.862Z,14.60
